sensor_id;sensor_type;location;lat;lon;timestamp;temperature;humidity
66871;DHT22;53780;44.998;9.926;2022-07-10T00:01:25;22.07;51.89
66871;DHT22;53780;44.998;9.926;2022-07-10T00:04:31;22.11;51.89
66871;DHT22;53780;44.998;9.926;2022-07-10T00:07:35;22.09;51.64
66871;DHT22;53780;44.998;9.926;2022-07-10T00:10:39;22.07;51.75
66871;DHT22;53780;44.998;9.926;2022-07-10T00:13:43;22.03;51.74
66871;DHT22;53780;44.998;9.926;2022-07-10T00:16:47;22.03;51.64
66871;DHT22;53780;44.998;9.926;2022-07-10T00:19:51;22.04;51.49
66871;DHT22;53780;44.998;9.926;2022-07-10T00:22:55;22.00;51.66
66871;DHT22;53780;44.998;9.926;2022-07-10T00:25:59;22.03;53.27
66871;DHT22;53780;44.998;9.926;2022-07-10T00:29:03;21.85;57.13
66871;DHT22;53780;44.998;9.926;2022-07-10T00:32:06;21.47;59.77
66871;DHT22;53780;44.998;9.926;2022-07-10T00:35:11;21.23;60.29
66871;DHT22;53780;44.998;9.926;2022-07-10T00:38:14;21.07;60.95
66871;DHT22;53780;44.998;9.926;2022-07-10T00:41:18;20.91;61.19
66871;DHT22;53780;44.998;9.926;2022-07-10T00:44:22;20.82;62.13
66871;DHT22;53780;44.998;9.926;2022-07-10T00:47:26;20.66;63.18
66871;DHT22;53780;44.998;9.926;2022-07-10T00:50:30;20.59;63.52
66871;DHT22;53780;44.998;9.926;2022-07-10T00:53:34;20.45;63.88
66871;DHT22;53780;44.998;9.926;2022-07-10T00:56:37;20.38;63.85
66871;DHT22;53780;44.998;9.926;2022-07-10T00:59:41;20.32;63.54
66871;DHT22;53780;44.998;9.926;2022-07-10T01:02:45;20.24;63.44
66871;DHT22;53780;44.998;9.926;2022-07-10T01:05:49;20.08;64.15
66871;DHT22;53780;44.998;9.926;2022-07-10T01:08:54;19.98;64.57
66871;DHT22;53780;44.998;9.926;2022-07-10T01:11:59;19.94;64.60
66871;DHT22;53780;44.998;9.926;2022-07-10T01:15:04;20.04;64.41
66871;DHT22;53780;44.998;9.926;2022-07-10T01:18:08;19.98;64.23
66871;DHT22;53780;44.998;9.926;2022-07-10T01:21:33;20.00;63.92
66871;DHT22;53780;44.998;9.926;2022-07-10T01:24:37;20.01;63.74
66871;DHT22;53780;44.998;9.926;2022-07-10T01:27:41;20.06;63.93
66871;DHT22;53780;44.998;9.926;2022-07-10T01:30:45;20.04;64.49
66871;DHT22;53780;44.998;9.926;2022-07-10T01:33:49;20.03;63.53
66871;DHT22;53780;44.998;9.926;2022-07-10T01:36:53;20.04;63.29
66871;DHT22;53780;44.998;9.926;2022-07-10T01:39:57;20.07;62.87
66871;DHT22;53780;44.998;9.926;2022-07-10T01:43:01;20.04;63.70
66871;DHT22;53780;44.998;9.926;2022-07-10T01:46:05;20.03;63.73
66871;DHT22;53780;44.998;9.926;2022-07-10T01:49:09;20.00;63.94
66871;DHT22;53780;44.998;9.926;2022-07-10T01:52:13;19.86;65.39
66871;DHT22;53780;44.998;9.926;2022-07-10T01:55:17;19.39;67.19
66871;DHT22;53780;44.998;9.926;2022-07-10T01:58:21;19.18;68.13
66871;DHT22;53780;44.998;9.926;2022-07-10T02:01:25;19.18;67.89
66871;DHT22;53780;44.998;9.926;2022-07-10T02:04:29;19.24;67.23
66871;DHT22;53780;44.998;9.926;2022-07-10T02:07:44;19.38;66.34
66871;DHT22;53780;44.998;9.926;2022-07-10T02:10:48;19.49;66.75
66871;DHT22;53780;44.998;9.926;2022-07-10T02:13:52;19.56;65.64
66871;DHT22;53780;44.998;9.926;2022-07-10T02:16:57;19.60;67.06
66871;DHT22;53780;44.998;9.926;2022-07-10T02:20:01;19.45;67.20
66871;DHT22;53780;44.998;9.926;2022-07-10T02:23:05;19.33;66.26
66871;DHT22;53780;44.998;9.926;2022-07-10T02:26:10;19.38;66.08
66871;DHT22;53780;44.998;9.926;2022-07-10T02:29:14;19.45;64.61
66871;DHT22;53780;44.998;9.926;2022-07-10T02:32:18;19.52;64.36
66871;DHT22;53780;44.998;9.926;2022-07-10T02:35:22;19.63;63.47
66871;DHT22;53780;44.998;9.926;2022-07-10T02:38:25;19.67;65.42
66871;DHT22;53780;44.998;9.926;2022-07-10T02:41:29;19.42;66.99
66871;DHT22;53780;44.998;9.926;2022-07-10T02:44:33;19.14;67.31
66871;DHT22;53780;44.998;9.926;2022-07-10T02:47:37;19.05;67.86
66871;DHT22;53780;44.998;9.926;2022-07-10T02:50:40;19.04;67.61
66871;DHT22;53780;44.998;9.926;2022-07-10T02:53:44;19.00;67.88
66871;DHT22;53780;44.998;9.926;2022-07-10T02:56:48;19.05;68.36
66871;DHT22;53780;44.998;9.926;2022-07-10T02:59:52;19.01;68.52
66871;DHT22;53780;44.998;9.926;2022-07-10T03:02:55;18.93;68.86
66871;DHT22;53780;44.998;9.926;2022-07-10T03:05:59;18.97;69.00
66871;DHT22;53780;44.998;9.926;2022-07-10T03:09:03;18.97;68.44
66871;DHT22;53780;44.998;9.926;2022-07-10T03:12:07;19.04;68.39
66871;DHT22;53780;44.998;9.926;2022-07-10T03:15:10;19.07;68.02
66871;DHT22;53780;44.998;9.926;2022-07-10T03:18:14;18.95;68.43
66871;DHT22;53780;44.998;9.926;2022-07-10T03:21:18;18.78;68.54
66871;DHT22;53780;44.998;9.926;2022-07-10T03:24:22;18.74;68.59
66871;DHT22;53780;44.998;9.926;2022-07-10T03:27:25;18.60;69.30
66871;DHT22;53780;44.998;9.926;2022-07-10T03:30:29;18.46;70.45
66871;DHT22;53780;44.998;9.926;2022-07-10T03:33:33;18.53;70.17
66871;DHT22;53780;44.998;9.926;2022-07-10T03:36:36;18.55;70.70
66871;DHT22;53780;44.998;9.926;2022-07-10T03:39:40;18.60;70.37
66871;DHT22;53780;44.998;9.926;2022-07-10T03:42:44;18.55;70.23
66871;DHT22;53780;44.998;9.926;2022-07-10T03:45:48;18.57;69.91
66871;DHT22;53780;44.998;9.926;2022-07-10T03:48:51;18.60;68.78
66871;DHT22;53780;44.998;9.926;2022-07-10T03:51:59;18.74;68.91
66871;DHT22;53780;44.998;9.926;2022-07-10T03:55:05;18.88;69.78
66871;DHT22;53780;44.998;9.926;2022-07-10T03:58:09;18.91;70.16
66871;DHT22;53780;44.998;9.926;2022-07-10T04:01:13;19.00;69.99
66871;DHT22;53780;44.998;9.926;2022-07-10T04:04:17;18.88;70.14
66871;DHT22;53780;44.998;9.926;2022-07-10T04:07:21;18.63;70.63
66871;DHT22;53780;44.998;9.926;2022-07-10T04:10:26;18.42;71.15
66871;DHT22;53780;44.998;9.926;2022-07-10T04:13:30;18.39;71.30
66871;DHT22;53780;44.998;9.926;2022-07-10T04:16:34;18.32;71.49
66871;DHT22;53780;44.998;9.926;2022-07-10T04:19:38;18.32;71.68
66871;DHT22;53780;44.998;9.926;2022-07-10T04:22:42;18.26;72.25
66871;DHT22;53780;44.998;9.926;2022-07-10T04:25:46;18.24;72.10
66871;DHT22;53780;44.998;9.926;2022-07-10T04:28:50;18.22;72.31
66871;DHT22;53780;44.998;9.926;2022-07-10T04:31:53;18.29;72.14
66871;DHT22;53780;44.998;9.926;2022-07-10T04:34:58;18.42;71.82
66871;DHT22;53780;44.998;9.926;2022-07-10T04:38:02;18.53;71.92
66871;DHT22;53780;44.998;9.926;2022-07-10T04:41:06;18.61;71.27
66871;DHT22;53780;44.998;9.926;2022-07-10T04:44:10;18.67;70.66
66871;DHT22;53780;44.998;9.926;2022-07-10T04:47:14;18.67;70.84
66871;DHT22;53780;44.998;9.926;2022-07-10T04:50:18;18.84;70.02
66871;DHT22;53780;44.998;9.926;2022-07-10T04:53:21;19.01;69.84
66871;DHT22;53780;44.998;9.926;2022-07-10T04:56:26;19.25;69.54
66871;DHT22;53780;44.998;9.926;2022-07-10T04:59:29;19.39;69.13
66871;DHT22;53780;44.998;9.926;2022-07-10T05:02:33;19.56;70.95
66871;DHT22;53780;44.998;9.926;2022-07-10T05:05:37;19.58;71.18
66871;DHT22;53780;44.998;9.926;2022-07-10T05:08:41;19.60;70.09
66871;DHT22;53780;44.998;9.926;2022-07-10T05:11:45;19.73;69.76
66871;DHT22;53780;44.998;9.926;2022-07-10T05:14:50;19.89;69.64
66871;DHT22;53780;44.998;9.926;2022-07-10T05:17:54;20.07;69.21
66871;DHT22;53780;44.998;9.926;2022-07-10T05:20:58;20.27;67.93
66871;DHT22;53780;44.998;9.926;2022-07-10T05:24:02;20.36;68.18
66871;DHT22;53780;44.998;9.926;2022-07-10T05:27:05;20.46;67.67
66871;DHT22;53780;44.998;9.926;2022-07-10T05:30:10;20.63;67.24
66871;DHT22;53780;44.998;9.926;2022-07-10T05:33:15;20.80;66.88
66871;DHT22;53780;44.998;9.926;2022-07-10T05:36:19;21.00;67.01
66871;DHT22;53780;44.998;9.926;2022-07-10T05:39:22;21.18;67.33
66871;DHT22;53780;44.998;9.926;2022-07-10T05:42:29;21.28;66.85
66871;DHT22;53780;44.998;9.926;2022-07-10T05:45:33;21.41;66.28
66871;DHT22;53780;44.998;9.926;2022-07-10T05:48:37;21.42;65.62
66871;DHT22;53780;44.998;9.926;2022-07-10T05:51:42;21.54;65.50
66871;DHT22;53780;44.998;9.926;2022-07-10T05:54:46;21.78;65.27
66871;DHT22;53780;44.998;9.926;2022-07-10T05:57:50;21.86;64.93
66871;DHT22;53780;44.998;9.926;2022-07-10T06:00:58;22.10;65.71
66871;DHT22;53780;44.998;9.926;2022-07-10T06:04:02;22.30;64.28
66871;DHT22;53780;44.998;9.926;2022-07-10T06:07:06;22.55;63.86
66871;DHT22;53780;44.998;9.926;2022-07-10T06:10:09;22.78;62.51
66871;DHT22;53780;44.998;9.926;2022-07-10T06:13:14;23.09;61.78
66871;DHT22;53780;44.998;9.926;2022-07-10T06:16:18;23.44;61.68
66871;DHT22;53780;44.998;9.926;2022-07-10T06:19:22;23.75;58.27
66871;DHT22;53780;44.998;9.926;2022-07-10T06:22:26;23.96;60.18
66871;DHT22;53780;44.998;9.926;2022-07-10T06:25:36;24.25;58.26
66871;DHT22;53780;44.998;9.926;2022-07-10T06:28:40;24.41;57.12
66871;DHT22;53780;44.998;9.926;2022-07-10T06:31:44;24.72;56.70
66871;DHT22;53780;44.998;9.926;2022-07-10T06:34:48;25.04;55.51
66871;DHT22;53780;44.998;9.926;2022-07-10T06:37:52;25.40;54.12
66871;DHT22;53780;44.998;9.926;2022-07-10T06:40:55;25.75;53.76
66871;DHT22;53780;44.998;9.926;2022-07-10T06:43:59;26.15;51.86
66871;DHT22;53780;44.998;9.926;2022-07-10T06:47:06;26.59;50.90
66871;DHT22;53780;44.998;9.926;2022-07-10T06:50:29;27.01;47.47
66871;DHT22;53780;44.998;9.926;2022-07-10T06:53:34;27.27;47.62
66871;DHT22;53780;44.998;9.926;2022-07-10T06:56:39;27.55;48.34
66871;DHT22;53780;44.998;9.926;2022-07-10T06:59:43;27.92;46.56
66871;DHT22;53780;44.998;9.926;2022-07-10T07:02:46;28.27;47.04
66871;DHT22;53780;44.998;9.926;2022-07-10T07:05:50;28.63;46.22
66871;DHT22;53780;44.998;9.926;2022-07-10T07:08:54;29.08;43.37
66871;DHT22;53780;44.998;9.926;2022-07-10T07:11:58;29.53;40.41
66871;DHT22;53780;44.998;9.926;2022-07-10T07:15:03;30.10;40.21
66871;DHT22;53780;44.998;9.926;2022-07-10T07:18:07;30.36;42.97
66871;DHT22;53780;44.998;9.926;2022-07-10T07:21:11;30.61;37.77
66871;DHT22;53780;44.998;9.926;2022-07-10T07:24:34;30.91;37.08
66871;DHT22;53780;44.998;9.926;2022-07-10T07:27:38;30.47;41.35
66871;DHT22;53780;44.998;9.926;2022-07-10T07:30:43;30.55;39.27
66871;DHT22;53780;44.998;9.926;2022-07-10T07:33:47;30.89;40.53
66871;DHT22;53780;44.998;9.926;2022-07-10T07:36:51;31.16;40.37
66871;DHT22;53780;44.998;9.926;2022-07-10T07:39:55;31.31;37.01
66871;DHT22;53780;44.998;9.926;2022-07-10T07:42:58;31.54;40.45
66871;DHT22;53780;44.998;9.926;2022-07-10T07:46:02;31.66;38.81
66871;DHT22;53780;44.998;9.926;2022-07-10T07:49:06;31.80;40.73
66871;DHT22;53780;44.998;9.926;2022-07-10T07:52:10;31.58;37.46
66871;DHT22;53780;44.998;9.926;2022-07-10T07:55:15;31.66;36.41
66871;DHT22;53780;44.998;9.926;2022-07-10T07:58:20;31.91;39.17
66871;DHT22;53780;44.998;9.926;2022-07-10T08:01:24;32.13;38.11
66871;DHT22;53780;44.998;9.926;2022-07-10T08:04:28;32.13;36.08
66871;DHT22;53780;44.998;9.926;2022-07-10T08:07:39;31.39;35.70
66871;DHT22;53780;44.998;9.926;2022-07-10T08:10:44;31.46;38.84
66871;DHT22;53780;44.998;9.926;2022-07-10T08:13:48;31.73;38.69
66871;DHT22;53780;44.998;9.926;2022-07-10T08:16:51;32.28;36.80
66871;DHT22;53780;44.998;9.926;2022-07-10T08:19:56;32.01;37.30
66871;DHT22;53780;44.998;9.926;2022-07-10T08:23:01;32.22;35.15
66871;DHT22;53780;44.998;9.926;2022-07-10T08:26:05;32.26;35.51
66871;DHT22;53780;44.998;9.926;2022-07-10T08:29:09;32.44;34.11
66871;DHT22;53780;44.998;9.926;2022-07-10T08:32:13;32.92;39.21
66871;DHT22;53780;44.998;9.926;2022-07-10T08:35:17;33.22;37.22
66871;DHT22;53780;44.998;9.926;2022-07-10T08:38:21;33.10;35.20
66871;DHT22;53780;44.998;9.926;2022-07-10T08:41:26;32.40;35.56
66871;DHT22;53780;44.998;9.926;2022-07-10T08:44:33;32.31;38.16
66871;DHT22;53780;44.998;9.926;2022-07-10T08:47:38;32.91;38.85
66871;DHT22;53780;44.998;9.926;2022-07-10T08:50:47;32.83;36.86
66871;DHT22;53780;44.998;9.926;2022-07-10T08:53:51;32.13;34.70
66871;DHT22;53780;44.998;9.926;2022-07-10T08:56:57;33.03;36.09
66871;DHT22;53780;44.998;9.926;2022-07-10T09:00:02;33.26;32.77
66871;DHT22;53780;44.998;9.926;2022-07-10T09:03:07;33.68;33.93
66871;DHT22;53780;44.998;9.926;2022-07-10T09:06:11;33.80;31.01
66871;DHT22;53780;44.998;9.926;2022-07-10T09:09:16;33.93;32.29
66871;DHT22;53780;44.998;9.926;2022-07-10T09:12:21;33.25;34.03
66871;DHT22;53780;44.998;9.926;2022-07-10T09:15:30;33.76;34.15
66871;DHT22;53780;44.998;9.926;2022-07-10T09:18:36;33.49;35.04
66871;DHT22;53780;44.998;9.926;2022-07-10T09:21:40;33.85;33.08
66871;DHT22;53780;44.998;9.926;2022-07-10T09:24:45;34.31;33.07
66871;DHT22;53780;44.998;9.926;2022-07-10T09:27:53;34.47;33.02
66871;DHT22;53780;44.998;9.926;2022-07-10T09:30:57;34.35;32.85
66871;DHT22;53780;44.998;9.926;2022-07-10T09:34:02;34.63;33.10
66871;DHT22;53780;44.998;9.926;2022-07-10T09:40:27;35.07;34.19
66871;DHT22;53780;44.998;9.926;2022-07-10T09:43:51;35.27;29.46
66871;DHT22;53780;44.998;9.926;2022-07-10T09:46:56;35.30;31.61
66871;DHT22;53780;44.998;9.926;2022-07-10T09:50:00;35.36;29.33
66871;DHT22;53780;44.998;9.926;2022-07-10T09:53:08;35.47;31.50
66871;DHT22;53780;44.998;9.926;2022-07-10T09:56:16;35.71;30.29
66871;DHT22;53780;44.998;9.926;2022-07-10T09:59:20;35.55;31.01
66871;DHT22;53780;44.998;9.926;2022-07-10T10:02:25;35.51;31.43
66871;DHT22;53780;44.998;9.926;2022-07-10T10:12:15;35.85;29.79
66871;DHT22;53780;44.998;9.926;2022-07-10T10:15:20;35.61;29.23
66871;DHT22;53780;44.998;9.926;2022-07-10T10:18:26;35.29;29.15
66871;DHT22;53780;44.998;9.926;2022-07-10T10:21:30;35.74;29.83
66871;DHT22;53780;44.998;9.926;2022-07-10T10:24:34;35.16;28.95
66871;DHT22;53780;44.998;9.926;2022-07-10T10:27:38;35.29;31.33
66871;DHT22;53780;44.998;9.926;2022-07-10T10:30:44;35.85;28.55
66871;DHT22;53780;44.998;9.926;2022-07-10T10:33:49;36.12;25.70
66871;DHT22;53780;44.998;9.926;2022-07-10T10:36:57;36.29;26.26
66871;DHT22;53780;44.998;9.926;2022-07-10T10:40:02;36.66;27.05
66871;DHT22;53780;44.998;9.926;2022-07-10T10:43:22;36.62;28.41
66871;DHT22;53780;44.998;9.926;2022-07-10T10:46:27;36.71;26.77
66871;DHT22;53780;44.998;9.926;2022-07-10T10:49:53;37.11;27.31
66871;DHT22;53780;44.998;9.926;2022-07-10T10:53:00;37.36;25.87
66871;DHT22;53780;44.998;9.926;2022-07-10T10:59:48;37.50;24.62
66871;DHT22;53780;44.998;9.926;2022-07-10T11:03:12;37.45;25.54
66871;DHT22;53780;44.998;9.926;2022-07-10T11:06:42;37.21;27.41
66871;DHT22;53780;44.998;9.926;2022-07-10T11:09:46;37.40;28.32
66871;DHT22;53780;44.998;9.926;2022-07-10T11:13:04;37.66;28.15
66871;DHT22;53780;44.998;9.926;2022-07-10T11:16:12;37.28;27.31
66871;DHT22;53780;44.998;9.926;2022-07-10T11:19:21;37.38;27.92
66871;DHT22;53780;44.998;9.926;2022-07-10T11:26:09;37.59;24.54
66871;DHT22;53780;44.998;9.926;2022-07-10T11:29:17;37.57;24.86
66871;DHT22;53780;44.998;9.926;2022-07-10T11:32:21;37.59;27.74
66871;DHT22;53780;44.998;9.926;2022-07-10T11:35:25;37.62;25.95
66871;DHT22;53780;44.998;9.926;2022-07-10T11:38:28;37.66;26.82
66871;DHT22;53780;44.998;9.926;2022-07-10T11:41:44;37.18;25.61
66871;DHT22;53780;44.998;9.926;2022-07-10T11:44:49;36.43;26.33
66871;DHT22;53780;44.998;9.926;2022-07-10T11:47:53;36.60;28.23
66871;DHT22;53780;44.998;9.926;2022-07-10T11:50:57;36.82;28.87
66871;DHT22;53780;44.998;9.926;2022-07-10T11:57:07;36.75;30.20
66871;DHT22;53780;44.998;9.926;2022-07-10T12:00:25;36.88;28.38
66871;DHT22;53780;44.998;9.926;2022-07-10T12:03:29;36.60;27.63
66871;DHT22;53780;44.998;9.926;2022-07-10T12:06:34;35.93;28.65
66871;DHT22;53780;44.998;9.926;2022-07-10T12:09:38;35.68;28.92
66871;DHT22;53780;44.998;9.926;2022-07-10T12:12:42;35.75;28.14
66871;DHT22;53780;44.998;9.926;2022-07-10T12:15:46;35.80;28.95
66871;DHT22;53780;44.998;9.926;2022-07-10T12:18:51;35.78;30.22
66871;DHT22;53780;44.998;9.926;2022-07-10T12:21:55;35.72;27.22
66871;DHT22;53780;44.998;9.926;2022-07-10T12:25:00;35.41;32.06
66871;DHT22;53780;44.998;9.926;2022-07-10T12:28:05;35.09;30.07
66871;DHT22;53780;44.998;9.926;2022-07-10T12:31:09;35.20;31.24
66871;DHT22;53780;44.998;9.926;2022-07-10T12:34:13;35.18;27.78
66871;DHT22;53780;44.998;9.926;2022-07-10T12:37:17;34.95;29.57
66871;DHT22;53780;44.998;9.926;2022-07-10T12:40:32;34.79;29.10
66871;DHT22;53780;44.998;9.926;2022-07-10T12:43:37;34.68;30.67
66871;DHT22;53780;44.998;9.926;2022-07-10T12:46:41;34.65;31.98
66871;DHT22;53780;44.998;9.926;2022-07-10T12:53:11;34.61;29.26
66871;DHT22;53780;44.998;9.926;2022-07-10T12:56:35;34.31;31.30
66871;DHT22;53780;44.998;9.926;2022-07-10T12:59:39;34.38;30.10
66871;DHT22;53780;44.998;9.926;2022-07-10T13:02:46;34.33;31.96
66871;DHT22;53780;44.998;9.926;2022-07-10T13:05:54;34.25;32.59
66871;DHT22;53780;44.998;9.926;2022-07-10T13:09:00;34.20;31.53
66871;DHT22;53780;44.998;9.926;2022-07-10T13:12:04;34.24;32.54
66871;DHT22;53780;44.998;9.926;2022-07-10T13:15:09;34.21;31.32
66871;DHT22;53780;44.998;9.926;2022-07-10T13:18:17;34.11;29.53
66871;DHT22;53780;44.998;9.926;2022-07-10T13:21:21;34.16;32.75
66871;DHT22;53780;44.998;9.926;2022-07-10T13:24:25;34.08;31.24
66871;DHT22;53780;44.998;9.926;2022-07-10T13:27:30;34.13;31.73
66871;DHT22;53780;44.998;9.926;2022-07-10T13:30:36;34.11;31.96
66871;DHT22;53780;44.998;9.926;2022-07-10T13:33:40;34.13;32.25
66871;DHT22;53780;44.998;9.926;2022-07-10T13:36:43;34.14;31.68
66871;DHT22;53780;44.998;9.926;2022-07-10T13:39:47;34.04;30.46
66871;DHT22;53780;44.998;9.926;2022-07-10T13:42:51;33.96;30.15
66871;DHT22;53780;44.998;9.926;2022-07-10T13:45:57;33.87;31.11
66871;DHT22;53780;44.998;9.926;2022-07-10T13:49:01;33.86;31.77
66871;DHT22;53780;44.998;9.926;2022-07-10T13:52:05;33.87;29.71
66871;DHT22;53780;44.998;9.926;2022-07-10T13:55:10;33.81;29.34
66871;DHT22;53780;44.998;9.926;2022-07-10T13:58:14;33.79;32.72
66871;DHT22;53780;44.998;9.926;2022-07-10T14:01:18;33.73;32.63
66871;DHT22;53780;44.998;9.926;2022-07-10T14:04:22;33.48;33.16
66871;DHT22;53780;44.998;9.926;2022-07-10T14:07:26;33.33;30.99
66871;DHT22;53780;44.998;9.926;2022-07-10T14:10:30;33.45;32.58
66871;DHT22;53780;44.998;9.926;2022-07-10T14:13:35;33.62;31.93
66871;DHT22;53780;44.998;9.926;2022-07-10T14:16:39;33.55;29.95
66871;DHT22;53780;44.998;9.926;2022-07-10T14:19:43;33.62;31.01
66871;DHT22;53780;44.998;9.926;2022-07-10T14:22:47;33.60;30.84
66871;DHT22;53780;44.998;9.926;2022-07-10T14:25:51;33.48;30.06
66871;DHT22;53780;44.998;9.926;2022-07-10T14:28:56;33.32;31.08
66871;DHT22;53780;44.998;9.926;2022-07-10T14:31:59;33.29;31.62
66871;DHT22;53780;44.998;9.926;2022-07-10T14:35:13;33.25;31.67
66871;DHT22;53780;44.998;9.926;2022-07-10T14:38:17;33.17;30.96
66871;DHT22;53780;44.998;9.926;2022-07-10T14:41:24;33.11;30.97
66871;DHT22;53780;44.998;9.926;2022-07-10T14:44:28;33.15;32.64
66871;DHT22;53780;44.998;9.926;2022-07-10T14:47:32;33.18;30.20
66871;DHT22;53780;44.998;9.926;2022-07-10T14:50:36;33.14;30.63
66871;DHT22;53780;44.998;9.926;2022-07-10T14:53:40;33.12;30.80
66871;DHT22;53780;44.998;9.926;2022-07-10T14:56:45;33.17;30.19
66871;DHT22;53780;44.998;9.926;2022-07-10T14:59:49;33.17;29.40
66871;DHT22;53780;44.998;9.926;2022-07-10T15:02:53;33.24;29.53
66871;DHT22;53780;44.998;9.926;2022-07-10T15:05:57;33.29;31.13
66871;DHT22;53780;44.998;9.926;2022-07-10T15:09:00;33.19;30.01
66871;DHT22;53780;44.998;9.926;2022-07-10T15:12:05;33.11;29.26
66871;DHT22;53780;44.998;9.926;2022-07-10T15:15:09;33.00;29.23
66871;DHT22;53780;44.998;9.926;2022-07-10T15:18:14;32.92;27.83
66871;DHT22;53780;44.998;9.926;2022-07-10T15:21:18;32.86;27.48
66871;DHT22;53780;44.998;9.926;2022-07-10T15:24:22;32.91;30.26
66871;DHT22;53780;44.998;9.926;2022-07-10T15:27:25;32.87;30.48
66871;DHT22;53780;44.998;9.926;2022-07-10T15:30:30;32.88;28.88
66871;DHT22;53780;44.998;9.926;2022-07-10T15:33:33;32.86;27.99
66871;DHT22;53780;44.998;9.926;2022-07-10T15:36:40;32.81;29.92
66871;DHT22;53780;44.998;9.926;2022-07-10T15:39:44;32.78;27.76
66871;DHT22;53780;44.998;9.926;2022-07-10T15:42:48;32.84;28.55
66871;DHT22;53780;44.998;9.926;2022-07-10T15:45:52;32.87;28.44
66871;DHT22;53780;44.998;9.926;2022-07-10T15:48:56;32.86;28.89
66871;DHT22;53780;44.998;9.926;2022-07-10T15:52:00;32.87;28.84
66871;DHT22;53780;44.998;9.926;2022-07-10T15:55:04;32.83;28.76
66871;DHT22;53780;44.998;9.926;2022-07-10T15:58:08;32.77;28.17
66871;DHT22;53780;44.998;9.926;2022-07-10T16:01:14;32.73;28.31
66871;DHT22;53780;44.998;9.926;2022-07-10T16:04:19;32.64;28.96
66871;DHT22;53780;44.998;9.926;2022-07-10T16:07:23;32.53;28.18
66871;DHT22;53780;44.998;9.926;2022-07-10T16:10:27;32.46;27.06
66871;DHT22;53780;44.998;9.926;2022-07-10T16:13:31;32.40;27.33
66871;DHT22;53780;44.998;9.926;2022-07-10T16:16:35;32.35;28.42
66871;DHT22;53780;44.998;9.926;2022-07-10T16:19:39;32.33;29.92
66871;DHT22;53780;44.998;9.926;2022-07-10T16:22:43;32.32;29.20
66871;DHT22;53780;44.998;9.926;2022-07-10T16:25:47;32.28;29.08
66871;DHT22;53780;44.998;9.926;2022-07-10T16:29:06;32.25;30.75
66871;DHT22;53780;44.998;9.926;2022-07-10T16:32:10;32.18;30.85
66871;DHT22;53780;44.998;9.926;2022-07-10T16:35:14;32.12;30.27
66871;DHT22;53780;44.998;9.926;2022-07-10T16:38:17;31.99;28.57
66871;DHT22;53780;44.998;9.926;2022-07-10T16:41:22;31.98;26.62
66871;DHT22;53780;44.998;9.926;2022-07-10T16:44:25;32.01;28.27
66871;DHT22;53780;44.998;9.926;2022-07-10T16:47:29;31.95;27.80
66871;DHT22;53780;44.998;9.926;2022-07-10T16:50:35;31.95;29.02
66871;DHT22;53780;44.998;9.926;2022-07-10T16:53:40;31.88;32.20
66871;DHT22;53780;44.998;9.926;2022-07-10T16:56:43;31.85;34.70
66871;DHT22;53780;44.998;9.926;2022-07-10T16:59:48;31.80;36.92
66871;DHT22;53780;44.998;9.926;2022-07-10T17:02:52;31.74;34.59
66871;DHT22;53780;44.998;9.926;2022-07-10T17:05:56;31.74;32.69
66871;DHT22;53780;44.998;9.926;2022-07-10T17:09:00;31.68;31.46
66871;DHT22;53780;44.998;9.926;2022-07-10T17:12:05;31.56;32.15
66871;DHT22;53780;44.998;9.926;2022-07-10T17:15:10;31.60;32.38
66871;DHT22;53780;44.998;9.926;2022-07-10T17:18:14;31.50;31.68
66871;DHT22;53780;44.998;9.926;2022-07-10T17:21:18;31.44;30.40
66871;DHT22;53780;44.998;9.926;2022-07-10T17:24:22;31.43;33.77
66871;DHT22;53780;44.998;9.926;2022-07-10T17:27:26;31.34;34.68
66871;DHT22;53780;44.998;9.926;2022-07-10T17:30:30;31.30;32.53
66871;DHT22;53780;44.998;9.926;2022-07-10T17:33:34;31.27;30.07
66871;DHT22;53780;44.998;9.926;2022-07-10T17:36:39;31.25;30.11
66871;DHT22;53780;44.998;9.926;2022-07-10T17:39:43;31.23;28.35
66871;DHT22;53780;44.998;9.926;2022-07-10T17:42:47;31.25;27.85
66871;DHT22;53780;44.998;9.926;2022-07-10T17:45:51;31.26;27.76
66871;DHT22;53780;44.998;9.926;2022-07-10T17:48:56;31.26;30.97
66871;DHT22;53780;44.998;9.926;2022-07-10T17:52:01;31.23;29.47
66871;DHT22;53780;44.998;9.926;2022-07-10T17:55:05;31.25;30.10
66871;DHT22;53780;44.998;9.926;2022-07-10T17:58:10;31.23;30.38
66871;DHT22;53780;44.998;9.926;2022-07-10T18:01:14;31.18;30.79
66871;DHT22;53780;44.998;9.926;2022-07-10T18:04:18;31.15;31.85
66871;DHT22;53780;44.998;9.926;2022-07-10T18:07:22;31.09;32.71
66871;DHT22;53780;44.998;9.926;2022-07-10T18:10:26;31.06;31.08
66871;DHT22;53780;44.998;9.926;2022-07-10T18:13:30;31.11;29.03
66871;DHT22;53780;44.998;9.926;2022-07-10T18:16:35;31.16;28.58
66871;DHT22;53780;44.998;9.926;2022-07-10T18:19:39;31.16;28.69
66871;DHT22;53780;44.998;9.926;2022-07-10T18:22:43;31.12;28.63
66871;DHT22;53780;44.998;9.926;2022-07-10T18:25:48;31.13;28.96
66871;DHT22;53780;44.998;9.926;2022-07-10T18:28:52;31.03;29.36
66871;DHT22;53780;44.998;9.926;2022-07-10T18:31:56;30.95;29.17
66871;DHT22;53780;44.998;9.926;2022-07-10T18:35:00;30.89;29.69
66871;DHT22;53780;44.998;9.926;2022-07-10T18:38:04;30.82;29.44
66871;DHT22;53780;44.998;9.926;2022-07-10T18:41:08;30.79;28.91
66871;DHT22;53780;44.998;9.926;2022-07-10T18:44:13;30.78;28.84
66871;DHT22;53780;44.998;9.926;2022-07-10T18:47:17;30.76;29.40
66871;DHT22;53780;44.998;9.926;2022-07-10T18:50:21;30.72;29.79
66871;DHT22;53780;44.998;9.926;2022-07-10T18:53:26;30.65;30.15
66871;DHT22;53780;44.998;9.926;2022-07-10T18:56:30;30.57;30.30
66871;DHT22;53780;44.998;9.926;2022-07-10T18:59:34;30.51;30.34
66871;DHT22;53780;44.998;9.926;2022-07-10T19:02:38;30.45;30.46
66871;DHT22;53780;44.998;9.926;2022-07-10T19:05:43;30.33;30.72
66871;DHT22;53780;44.998;9.926;2022-07-10T19:08:47;30.21;31.21
66871;DHT22;53780;44.998;9.926;2022-07-10T19:11:51;30.12;31.56
66871;DHT22;53780;44.998;9.926;2022-07-10T19:14:57;29.99;32.29
66871;DHT22;53780;44.998;9.926;2022-07-10T19:18:00;29.89;32.92
66871;DHT22;53780;44.998;9.926;2022-07-10T19:21:04;29.78;33.15
66871;DHT22;53780;44.998;9.926;2022-07-10T19:24:08;29.75;33.46
66871;DHT22;53780;44.998;9.926;2022-07-10T19:27:11;29.64;33.96
66871;DHT22;53780;44.998;9.926;2022-07-10T19:30:16;29.57;34.10
66871;DHT22;53780;44.998;9.926;2022-07-10T19:33:20;29.53;34.15
66871;DHT22;53780;44.998;9.926;2022-07-10T19:36:26;29.43;34.40
66871;DHT22;53780;44.998;9.926;2022-07-10T19:39:29;29.33;34.90
66871;DHT22;53780;44.998;9.926;2022-07-10T19:42:34;29.13;35.51
66871;DHT22;53780;44.998;9.926;2022-07-10T19:45:38;29.07;35.82
66871;DHT22;53780;44.998;9.926;2022-07-10T19:48:42;29.02;36.05
66871;DHT22;53780;44.998;9.926;2022-07-10T19:51:52;29.00;36.08